createdAt,value
2022-07-29T00:01:53.734Z,23.12
2022-07-29T00:04:59.997Z,23.12
2022-07-29T00:08:09.347Z,23.28
2022-07-29T00:11:16.731Z,23.21
2022-07-29T00:14:22.446Z,23.12
2022-07-29T00:17:27.990Z,23.38
2022-07-29T00:20:33.998Z,23.28
2022-07-29T00:23:39.416Z,23.34
2022-07-29T00:26:45.128Z,23.40
2022-07-29T00:29:51.063Z,23.48
2022-07-29T00:32:56.716Z,23.54
2022-07-29T00:36:02.232Z,23.53
2022-07-29T00:39:07.724Z,23.52
2022-07-29T00:42:13.578Z,23.39
2022-07-29T00:45:20.170Z,23.29
2022-07-29T00:48:26.700Z,23.34
2022-07-29T00:51:33.307Z,23.42
2022-07-29T00:54:44.638Z,23.26
2022-07-29T00:57:51.713Z,23.43
2022-07-29T01:00:57.355Z,23.48
2022-07-29T01:04:03.007Z,23.56
2022-07-29T01:07:08.799Z,23.71
2022-07-29T01:10:17.227Z,23.62
2022-07-29T01:13:22.961Z,23.51
2022-07-29T01:16:43.476Z,23.54
2022-07-29T01:20:15.241Z,23.56
2022-07-29T01:23:47.988Z,23.43
2022-07-29T01:27:18.261Z,23.41
2022-07-29T01:30:26.365Z,23.26
2022-07-29T01:33:52.150Z,23.16
2022-07-29T01:37:19.358Z,23.34
2022-07-29T01:40:32.541Z,23.46
2022-07-29T01:43:45.616Z,23.53
2022-07-29T01:46:58.098Z,23.36
2022-07-29T01:50:10.055Z,23.55
2022-07-29T01:53:27.164Z,23.49
2022-07-29T01:56:35.104Z,23.14
2022-07-29T01:59:43.971Z,22.74
2022-07-29T02:02:52.705Z,22.73
2022-07-29T02:06:02.505Z,23.14
2022-07-29T02:09:09.369Z,22.90
2022-07-29T02:12:18.179Z,23.00
2022-07-29T02:15:27.925Z,22.96
2022-07-29T02:18:35.334Z,23.02
2022-07-29T02:21:42.070Z,23.07
2022-07-29T02:24:50.165Z,23.22
2022-07-29T02:27:58.340Z,22.97
2022-07-29T02:31:06.388Z,22.98
2022-07-29T02:34:13.610Z,22.82
2022-07-29T02:37:20.964Z,22.97
2022-07-29T02:40:26.806Z,23.01
2022-07-29T02:43:33.642Z,22.98
2022-07-29T02:46:46.899Z,23.14
2022-07-29T02:50:00.634Z,23.02
2022-07-29T02:53:24.004Z,22.99
2022-07-29T02:56:36.030Z,23.08
2022-07-29T02:59:44.869Z,22.56
2022-07-29T03:02:55.046Z,22.50
2022-07-29T03:06:04.556Z,22.49
2022-07-29T03:09:13.707Z,22.57
2022-07-29T03:12:20.054Z,22.55
2022-07-29T03:15:27.440Z,22.61
2022-07-29T03:18:34.169Z,22.78
2022-07-29T03:21:40.077Z,22.69
2022-07-29T03:24:45.466Z,22.57
2022-07-29T03:27:52.925Z,22.56
2022-07-29T03:30:58.161Z,22.64
2022-07-29T03:34:04.605Z,22.71
2022-07-29T03:37:10.207Z,22.66
2022-07-29T03:40:24.756Z,22.35
2022-07-29T03:43:39.036Z,22.37
2022-07-29T03:47:01.594Z,22.38
2022-07-29T03:50:10.688Z,22.38
2022-07-29T03:53:17.602Z,22.35
2022-07-29T03:56:25.017Z,22.41
2022-07-29T03:59:32.003Z,22.35
2022-07-29T04:02:39.528Z,22.41
2022-07-29T04:05:44.936Z,22.18
2022-07-29T04:08:50.483Z,22.13
2022-07-29T04:12:00.716Z,21.88
2022-07-29T04:15:09.154Z,22.07
2022-07-29T04:18:14.174Z,21.94
2022-07-29T04:21:19.477Z,22.13
2022-07-29T04:24:24.950Z,22.08
2022-07-29T04:27:30.337Z,22.13
2022-07-29T04:30:38.639Z,22.10
2022-07-29T04:33:44.473Z,21.92
2022-07-29T04:36:50.285Z,22.09
2022-07-29T04:39:55.641Z,22.10
2022-07-29T04:43:05.693Z,22.05
2022-07-29T04:46:11.707Z,22.25
2022-07-29T04:49:17.727Z,22.04
2022-07-29T04:52:24.321Z,22.27
2022-07-29T04:55:29.793Z,22.27
2022-07-29T04:58:38.764Z,22.40
2022-07-29T05:01:44.499Z,22.43
2022-07-29T05:04:50.454Z,22.50
2022-07-29T05:07:56.578Z,22.54
2022-07-29T05:11:12.515Z,22.56
2022-07-29T05:14:19.947Z,22.95
2022-07-29T05:17:25.597Z,23.28
2022-07-29T05:20:32.400Z,23.46
2022-07-29T05:23:37.774Z,23.31
2022-07-29T05:26:44.305Z,23.10
2022-07-29T05:29:49.881Z,22.95
2022-07-29T05:32:55.960Z,22.85
2022-07-29T05:36:01.364Z,22.92
2022-07-29T05:39:06.756Z,22.84
2022-07-29T05:42:13.155Z,23.21
2022-07-29T05:45:18.821Z,23.51
2022-07-29T05:48:24.724Z,23.88
2022-07-29T05:51:31.303Z,23.79
2022-07-29T05:54:37.496Z,23.62
2022-07-29T05:57:44.706Z,23.92
2022-07-29T06:00:50.713Z,24.01
2022-07-29T06:03:56.737Z,23.96
2022-07-29T06:07:02.998Z,24.04
2022-07-29T06:10:09.272Z,24.29
2022-07-29T06:13:17.142Z,24.34
2022-07-29T06:16:29.693Z,24.47
2022-07-29T06:19:37.637Z,24.67
2022-07-29T06:22:43.238Z,24.87
2022-07-29T06:25:49.894Z,24.86
2022-07-29T06:28:55.788Z,25.04
2022-07-29T06:32:01.732Z,25.33
2022-07-29T06:35:38.008Z,25.10
2022-07-29T06:38:40.390Z,25.30
2022-07-29T06:41:52.783Z,25.39
2022-07-29T06:45:08.984Z,25.53
2022-07-29T06:48:14.863Z,25.67
2022-07-29T06:51:22.553Z,25.91
2022-07-29T06:54:28.960Z,25.54
2022-07-29T06:57:35.086Z,25.72
2022-07-29T07:00:40.693Z,25.85
2022-07-29T07:03:46.414Z,25.87
2022-07-29T07:06:51.907Z,26.05
2022-07-29T07:09:57.460Z,26.09
2022-07-29T07:13:03.212Z,26.06
2022-07-29T07:16:08.791Z,26.04
2022-07-29T07:19:14.258Z,26.30
2022-07-29T07:22:20.015Z,26.20
2022-07-29T07:25:25.652Z,26.24
2022-07-29T07:28:31.398Z,26.23
2022-07-29T07:31:39.339Z,26.26
2022-07-29T07:34:44.966Z,26.41
2022-07-29T07:37:50.607Z,26.24
2022-07-29T07:40:55.966Z,26.58
2022-07-29T07:44:01.403Z,26.62
2022-07-29T07:47:12.321Z,26.55
2022-07-29T07:50:19.495Z,26.75
2022-07-29T07:53:25.440Z,26.91
2022-07-29T07:56:34.876Z,26.85
2022-07-29T07:59:41.745Z,27.05
2022-07-29T08:02:47.197Z,27.24
2022-07-29T08:05:53.169Z,27.17
2022-07-29T08:09:19.485Z,27.23
2022-07-29T08:12:24.621Z,27.14
2022-07-29T08:15:29.992Z,27.29
2022-07-29T08:18:35.797Z,27.38
2022-07-29T08:21:41.511Z,27.34
2022-07-29T08:24:57.387Z,27.65
2022-07-29T08:28:03.481Z,27.55
2022-07-29T08:31:08.613Z,27.60
2022-07-29T08:34:14.404Z,27.70
2022-07-29T08:37:19.656Z,27.72
2022-07-29T08:40:32.292Z,27.96
2022-07-29T08:43:39.533Z,27.87
2022-07-29T08:46:45.739Z,27.91
2022-07-29T08:49:51.751Z,27.97
2022-07-29T08:52:59.939Z,28.22
2022-07-29T08:56:06.677Z,28.24
2022-07-29T08:59:14.239Z,28.27
2022-07-29T09:02:22.880Z,28.14
2022-07-29T09:05:29.139Z,28.47
2022-07-29T09:08:34.571Z,28.38
2022-07-29T09:11:40.439Z,28.39
2022-07-29T09:14:45.900Z,28.41
2022-07-29T09:17:51.350Z,28.49
2022-07-29T09:21:15.641Z,28.70
2022-07-29T09:24:21.251Z,28.73
2022-07-29T09:27:28.062Z,28.55
2022-07-29T09:30:33.796Z,28.50
2022-07-29T09:33:41.919Z,28.67
2022-07-29T09:36:49.927Z,28.93
2022-07-29T09:39:55.219Z,29.04
2022-07-29T09:43:12.264Z,28.87
2022-07-29T09:46:17.936Z,29.36
2022-07-29T09:49:24.142Z,29.08
2022-07-29T09:52:31.679Z,29.44
2022-07-29T09:55:53.231Z,29.48
2022-07-29T09:59:09.417Z,29.14
2022-07-29T10:02:20.289Z,29.38
2022-07-29T10:05:36.581Z,29.55
2022-07-29T10:08:43.214Z,29.47
2022-07-29T10:12:12.301Z,29.51
2022-07-29T10:15:19.337Z,29.42
2022-07-29T10:18:24.539Z,29.74
2022-07-29T10:21:35.244Z,29.69
2022-07-29T10:24:42.256Z,29.71
2022-07-29T10:27:49.320Z,29.63
2022-07-29T10:31:03.232Z,29.88
2022-07-29T10:34:32.419Z,29.54
2022-07-29T10:38:33.089Z,29.59
2022-07-29T10:42:09.137Z,29.46
2022-07-29T10:45:18.779Z,29.78
2022-07-29T10:48:25.150Z,29.92
2022-07-29T10:52:11.805Z,30.04
2022-07-29T10:55:38.055Z,30.08
2022-07-29T10:58:43.775Z,30.14
2022-07-29T11:02:27.765Z,30.35
2022-07-29T11:05:32.001Z,30.08
2022-07-29T11:08:37.910Z,29.96
2022-07-29T11:11:43.966Z,30.23
2022-07-29T11:14:53.709Z,30.38
2022-07-29T11:17:59.702Z,30.26
2022-07-29T11:21:26.252Z,30.03
2022-07-29T11:25:18.224Z,29.94
2022-07-29T11:28:25.243Z,30.06
2022-07-29T11:31:45.411Z,30.03
2022-07-29T11:35:17.713Z,30.06
2022-07-29T11:38:24.109Z,30.16
2022-07-29T11:41:38.354Z,30.30
2022-07-29T11:44:57.754Z,30.36
2022-07-29T11:48:31.483Z,30.28
2022-07-29T11:51:33.726Z,30.27
2022-07-29T11:54:57.109Z,30.26
2022-07-29T11:58:04.672Z,30.54
2022-07-29T12:01:15.719Z,30.84
2022-07-29T12:04:21.062Z,30.96
2022-07-29T12:07:37.343Z,30.95
2022-07-29T12:10:44.878Z,30.62
2022-07-29T12:13:51.879Z,30.86
2022-07-29T12:16:58.404Z,30.87
2022-07-29T12:20:05.835Z,30.76
2022-07-29T12:23:14.572Z,30.64
2022-07-29T12:26:25.803Z,31.03
2022-07-29T12:29:34.893Z,31.15
2022-07-29T12:32:42.162Z,31.01
2022-07-29T12:36:15.616Z,31.01
2022-07-29T12:39:23.782Z,31.17
2022-07-29T12:42:29.115Z,31.02
2022-07-29T12:45:34.455Z,31.28
2022-07-29T12:48:42.828Z,31.46
2022-07-29T12:51:48.173Z,31.47
2022-07-29T12:54:53.608Z,31.21
2022-07-29T12:57:59.342Z,31.32
2022-07-29T13:01:19.351Z,31.44
2022-07-29T13:04:33.682Z,31.50
2022-07-29T13:08:29.548Z,31.45
2022-07-29T13:11:06.691Z,31.71
2022-07-29T13:14:15.679Z,31.65
2022-07-29T13:17:32.840Z,31.60
2022-07-29T13:20:38.509Z,31.47
2022-07-29T13:23:44.657Z,31.76
2022-07-29T13:26:50.599Z,31.80
2022-07-29T13:29:58.923Z,31.89
2022-07-29T13:33:04.562Z,32.19
2022-07-29T13:36:10.584Z,32.27
2022-07-29T13:39:16.434Z,32.32
2022-07-29T13:42:22.112Z,32.30
2022-07-29T13:45:29.246Z,31.96
2022-07-29T13:48:34.991Z,31.83
2022-07-29T13:51:41.104Z,31.77
2022-07-29T13:54:46.688Z,31.63
2022-07-29T13:57:52.346Z,31.31
2022-07-29T14:00:58.211Z,31.14
2022-07-29T14:04:04.683Z,31.10
2022-07-29T14:07:11.494Z,31.12
2022-07-29T14:10:21.849Z,30.91
2022-07-29T14:13:27.794Z,30.93
2022-07-29T14:16:33.411Z,30.82
2022-07-29T14:19:40.241Z,30.72
2022-07-29T14:22:45.952Z,30.65
2022-07-29T14:25:51.572Z,30.55
2022-07-29T14:28:56.826Z,30.53
2022-07-29T14:32:02.830Z,30.40
2022-07-29T14:35:09.325Z,30.29
2022-07-29T14:38:14.556Z,30.25
2022-07-29T14:41:20.255Z,30.12
2022-07-29T14:44:30.680Z,29.95
2022-07-29T14:47:36.259Z,29.88
2022-07-29T14:50:42.213Z,29.84
2022-07-29T14:53:48.011Z,29.66
2022-07-29T14:56:58.761Z,29.73
2022-07-29T15:00:08.660Z,29.64
2022-07-29T15:03:24.233Z,29.56
2022-07-29T15:06:30.532Z,29.61
2022-07-29T15:09:36.296Z,29.49
2022-07-29T15:12:45.789Z,29.50
2022-07-29T15:15:51.335Z,29.45
2022-07-29T15:19:01.353Z,29.46
2022-07-29T15:22:07.245Z,29.39
2022-07-29T15:25:12.982Z,29.29
2022-07-29T15:28:18.656Z,28.97
2022-07-29T15:31:24.339Z,28.68
2022-07-29T15:34:29.903Z,28.49
2022-07-29T15:37:48.710Z,28.35
2022-07-29T15:40:55.850Z,28.21
2022-07-29T15:44:01.857Z,28.18
2022-07-29T15:47:07.636Z,28.18
2022-07-29T15:50:16.416Z,28.13
2022-07-29T15:53:22.077Z,27.91
2022-07-29T15:56:28.245Z,27.71
2022-07-29T15:59:34.079Z,27.39
2022-07-29T16:02:39.710Z,27.26
2022-07-29T16:05:45.467Z,27.09
2022-07-29T16:08:51.023Z,27.01
2022-07-29T16:11:57.212Z,27.25
2022-07-29T16:15:07.575Z,27.11
2022-07-29T16:18:15.058Z,26.82
2022-07-29T16:21:23.197Z,26.67
2022-07-29T16:24:30.305Z,26.44
2022-07-29T16:27:38.136Z,26.47
2022-07-29T16:30:43.976Z,26.57
2022-07-29T16:33:55.675Z,26.38
2022-07-29T16:37:02.493Z,26.08
2022-07-29T16:40:11.608Z,26.02
2022-07-29T16:43:17.845Z,25.94
2022-07-29T16:46:24.373Z,25.77
2022-07-29T16:49:31.764Z,25.77
2022-07-29T16:52:38.696Z,25.62
2022-07-29T16:55:44.509Z,25.61
2022-07-29T16:58:49.972Z,25.71
2022-07-29T17:01:56.003Z,25.67
2022-07-29T17:05:02.729Z,25.60
2022-07-29T17:08:08.290Z,25.58
2022-07-29T17:11:13.909Z,25.41
2022-07-29T17:14:25.431Z,25.57
2022-07-29T17:17:39.132Z,25.69
2022-07-29T17:20:56.850Z,25.55
2022-07-29T17:24:02.257Z,25.68
2022-07-29T17:27:08.957Z,25.63
2022-07-29T17:30:14.418Z,25.59
2022-07-29T17:33:20.263Z,25.77
2022-07-29T17:36:27.188Z,25.50
2022-07-29T17:39:34.362Z,25.37
2022-07-29T17:42:40.851Z,25.57
2022-07-29T17:45:50.132Z,25.44
2022-07-29T17:48:57.760Z,25.52
2022-07-29T17:52:02.873Z,25.59
2022-07-29T17:55:10.601Z,25.67
2022-07-29T17:58:16.753Z,25.53
2022-07-29T18:01:22.199Z,25.72
2022-07-29T18:04:29.059Z,25.68
2022-07-29T18:07:34.489Z,25.55
2022-07-29T18:10:41.710Z,25.52
2022-07-29T18:13:46.937Z,25.51
2022-07-29T18:16:52.381Z,25.37
2022-07-29T18:19:57.877Z,25.30
2022-07-29T18:23:03.124Z,25.11
2022-07-29T18:26:09.322Z,25.08
2022-07-29T18:29:14.778Z,25.04
2022-07-29T18:32:29.068Z,25.26
2022-07-29T18:35:35.038Z,25.31
2022-07-29T18:38:41.823Z,25.20
2022-07-29T18:41:50.122Z,25.15
2022-07-29T18:44:57.851Z,25.07
2022-07-29T18:48:03.971Z,25.11
2022-07-29T18:51:09.917Z,24.88
2022-07-29T18:54:15.641Z,24.73
2022-07-29T18:57:55.392Z,24.84
2022-07-29T19:00:46.986Z,24.66
2022-07-29T19:03:52.051Z,24.20
2022-07-29T19:07:03.235Z,23.96
2022-07-29T19:10:09.648Z,23.87
2022-07-29T19:13:15.671Z,23.53
2022-07-29T19:16:21.751Z,23.44
2022-07-29T19:19:27.469Z,23.63
2022-07-29T19:22:33.884Z,23.59
2022-07-29T19:25:53.155Z,23.56
2022-07-29T19:29:02.135Z,23.29
2022-07-29T19:32:09.453Z,23.22
2022-07-29T19:35:33.365Z,23.24
2022-07-29T19:38:39.988Z,23.45
2022-07-29T19:41:45.755Z,23.48
2022-07-29T19:44:51.865Z,23.43
2022-07-29T19:48:01.304Z,23.31
2022-07-29T19:51:07.258Z,23.46
2022-07-29T19:54:12.551Z,23.50
2022-07-29T19:57:18.082Z,23.57
2022-07-29T20:00:24.683Z,23.38
2022-07-29T20:03:30.214Z,23.43
2022-07-29T20:06:35.968Z,22.87
2022-07-29T20:09:43.088Z,22.81
2022-07-29T20:12:48.960Z,22.77
2022-07-29T20:15:58.403Z,23.09
2022-07-29T20:19:04.472Z,23.26
2022-07-29T20:22:10.685Z,23.25
2022-07-29T20:25:16.394Z,23.32
2022-07-29T20:28:22.254Z,23.17
2022-07-29T20:31:28.452Z,23.13
2022-07-29T20:34:34.623Z,22.90
2022-07-29T20:37:52.380Z,22.56
2022-07-29T20:41:02.317Z,22.71
2022-07-29T20:44:08.245Z,22.51
2022-07-29T20:47:14.046Z,22.46
2022-07-29T20:50:23.727Z,22.50
2022-07-29T20:53:30.590Z,22.56
2022-07-29T20:56:36.444Z,22.68
2022-07-29T20:59:45.819Z,22.88
2022-07-29T21:02:51.987Z,22.84
2022-07-29T21:05:57.971Z,22.78
2022-07-29T21:09:04.137Z,22.98
2022-07-29T21:12:11.408Z,22.92
2022-07-29T21:15:18.776Z,22.83
2022-07-29T21:18:27.862Z,23.03
2022-07-29T21:21:33.732Z,23.07
2022-07-29T21:24:39.560Z,22.94
2022-07-29T21:28:04.005Z,22.69
2022-07-29T21:31:13.006Z,22.84
2022-07-29T21:34:18.712Z,22.78
2022-07-29T21:37:24.568Z,22.80
2022-07-29T21:40:31.209Z,22.78
2022-07-29T21:43:37.222Z,22.36
2022-07-29T21:46:48.321Z,22.31
2022-07-29T21:49:53.734Z,22.39
2022-07-29T21:52:59.587Z,22.40
2022-07-29T21:56:05.412Z,22.28
2022-07-29T21:59:13.574Z,22.49
2022-07-29T22:02:18.993Z,22.36
2022-07-29T22:05:24.652Z,22.38
2022-07-29T22:08:30.332Z,22.21
2022-07-29T22:11:37.237Z,22.11
2022-07-29T22:14:42.977Z,21.92
2022-07-29T22:17:48.917Z,22.02
2022-07-29T22:20:54.338Z,21.70
2022-07-29T22:24:01.818Z,21.86
2022-07-29T22:27:07.363Z,21.79
2022-07-29T22:30:13.843Z,21.79
2022-07-29T22:33:19.501Z,21.87
2022-07-29T22:36:26.376Z,21.74
2022-07-29T22:39:31.894Z,21.89
2022-07-29T22:42:40.684Z,22.02
2022-07-29T22:45:46.647Z,21.99
2022-07-29T22:48:52.022Z,22.04
2022-07-29T22:51:57.816Z,21.98
2022-07-29T22:55:04.904Z,21.82
2022-07-29T22:58:11.186Z,21.88
2022-07-29T23:01:36.031Z,21.86
2022-07-29T23:04:44.076Z,21.87
2022-07-29T23:07:49.584Z,21.88
2022-07-29T23:10:55.311Z,21.74
2022-07-29T23:14:01.082Z,21.93
2022-07-29T23:17:06.687Z,21.88
2022-07-29T23:20:14.819Z,21.96
2022-07-29T23:23:21.129Z,21.97
2022-07-29T23:26:26.670Z,21.78
2022-07-29T23:29:36.670Z,21.77
2022-07-29T23:32:42.932Z,21.75
2022-07-29T23:35:48.690Z,21.81
2022-07-29T23:38:55.512Z,21.88
2022-07-29T23:42:01.136Z,21.91
2022-07-29T23:45:07.954Z,22.07
2022-07-29T23:48:14.880Z,22.02
2022-07-29T23:51:21.307Z,22.02
2022-07-29T23:54:26.711Z,22.02
2022-07-29T23:57:32.381Z,21.92
